TimeEEST,TemperatureF,Dew PointF,Humidity,Sea Level PressureIn,VisibilityMPH,Wind Direction,Wind SpeedMPH,Gust SpeedMPH,PrecipitationIn,Events,Conditions,WindDirDegrees,DateUTC
5:50 AM,73.4,71.6,94,29.74,3.1,North,5.8,-,N/A,Rain-Thunderstorm,Thunderstorms and Rain,350,2012-10-10 02:50:00
6:50 AM,68.0,68.0,100,29.74,1.2,ENE,24.2,35.7,N/A,Rain-Thunderstorm,Thunderstorms and Rain,70,2012-10-10 03:50:00
7:50 AM,66.2,66.2,100,29.74,3.1,NNE,8.1,-,N/A,Rain-Thunderstorm,Light Thunderstorms and Rain,20,2012-10-10 04:50:00
8:20 AM,66.2,66.2,100,29.74,5.0,NNE,8.1,-,N/A,Thunderstorm,Thunderstorm,30,2012-10-10 05:20:00
8:50 AM,68.0,68.0,100,29.74,6.2,NNE,8.1,-,N/A,Thunderstorm,Thunderstorm,30,2012-10-10 05:50:00
9:20 AM,68.0,68.0,100,29.74,6.2,East,10.4,-,N/A,,Mostly Cloudy,80,2012-10-10 06:20:00
9:50 AM,69.8,68.0,94,29.74,6.2,East,8.1,-,N/A,,Mostly Cloudy,80,2012-10-10 06:50:00
10:20 AM,69.8,68.0,94,29.74,6.2,East,8.1,-,N/A,,Mostly Cloudy,80,2012-10-10 07:20:00
10:50 AM,69.8,69.8,100,29.77,6.2,East,8.1,-,N/A,,Mostly Cloudy,90,2012-10-10 07:50:00
11:20 AM,73.4,71.6,94,29.77,6.2,ENE,9.2,-,N/A,,Scattered Clouds,70,2012-10-10 08:20:00
11:50 AM,73.4,64.4,73,29.77,6.2,East,9.2,-,N/A,,Scattered Clouds,80,2012-10-10 08:50:00
12:50 PM,75.2,60.8,61,29.77,6.2,East,5.8,-,N/A,,Scattered Clouds,90,2012-10-10 09:50:00
1:20 PM,75.2,60.8,61,29.77,6.2,East,5.8,-,N/A,,Scattered Clouds,90,2012-10-10 10:20:00
1:50 PM,75.2,60.8,61,29.77,6.2,East,9.2,-,N/A,,Scattered Clouds,80,2012-10-10 10:50:00
2:20 PM,75.2,60.8,61,29.77,6.2,East,9.2,-,N/A,,Scattered Clouds,80,2012-10-10 11:20:00
2:50 PM,75.2,60.8,61,29.77,6.2,ENE,9.2,-,N/A,,Scattered Clouds,60,2012-10-10 11:50:00
3:50 PM,75.2,57.2,53,29.74,6.2,NNE,6.9,-,N/A,,Scattered Clouds,20,2012-10-10 12:50:00
4:20 PM,75.2,57.2,53,29.74,6.2,NNE,6.9,-,N/A,,Scattered Clouds,20,2012-10-10 13:20:00
4:50 PM,73.4,60.8,65,29.74,6.2,ENE,9.2,-,N/A,,Scattered Clouds,60,2012-10-10 13:50:00
5:20 PM,73.4,60.8,65,29.74,6.2,ENE,9.2,-,N/A,,Scattered Clouds,60,2012-10-10 14:20:00
5:50 PM,73.4,64.4,73,29.74,6.2,ENE,5.8,-,N/A,,Scattered Clouds,60,2012-10-10 14:50:00
6:20 PM,73.4,64.4,73,29.74,6.2,ENE,5.8,-,N/A,,Scattered Clouds,60,2012-10-10 15:20:00
6:50 PM,71.6,66.2,83,29.77,6.2,NE,4.6,-,N/A,,Scattered Clouds,40,2012-10-10 15:50:00
7:20 PM,71.6,66.2,83,29.77,6.2,NE,4.6,-,N/A,,Scattered Clouds,40,2012-10-10 16:20:00
7:50 PM,71.6,66.2,83,29.77,6.2,North,4.6,-,N/A,,Scattered Clouds,10,2012-10-10 16:50:00
8:20 PM,71.6,66.2,83,29.77,6.2,North,4.6,-,N/A,,Scattered Clouds,10,2012-10-10 17:20:00
8:50 PM,71.6,66.2,83,29.77,6.2,NW,4.6,-,N/A,,Scattered Clouds,320,2012-10-10 17:50:00